sensor_id;sensor_type;location;lat;lon;timestamp;temperature;humidity
5956;DHT22;3004;48.080;11.600;2023-05-14T00:00:54;10.00;99.90
5956;DHT22;3004;48.080;11.600;2023-05-14T00:03:46;10.00;99.90
5956;DHT22;3004;48.080;11.600;2023-05-14T00:06:31;10.00;99.90
5956;DHT22;3004;48.080;11.600;2023-05-14T00:09:01;9.90;99.90
5956;DHT22;3004;48.080;11.600;2023-05-14T00:11:46;9.90;99.90
5956;DHT22;3004;48.080;11.600;2023-05-14T00:14:13;9.90;99.90
5956;DHT22;3004;48.080;11.600;2023-05-14T00:17:04;9.90;99.90
5956;DHT22;3004;48.080;11.600;2023-05-14T00:19:34;9.90;99.90
5956;DHT22;3004;48.080;11.600;2023-05-14T00:22:15;9.90;99.90
5956;DHT22;3004;48.080;11.600;2023-05-14T00:24:47;9.90;99.90
5956;DHT22;3004;48.080;11.600;2023-05-14T00:27:22;9.90;99.90
5956;DHT22;3004;48.080;11.600;2023-05-14T00:29:52;9.90;99.90
5956;DHT22;3004;48.080;11.600;2023-05-14T00:32:23;9.90;99.90
5956;DHT22;3004;48.080;11.600;2023-05-14T00:35:03;9.80;99.90
5956;DHT22;3004;48.080;11.600;2023-05-14T00:37:32;9.80;99.90
5956;DHT22;3004;48.080;11.600;2023-05-14T00:40:09;9.80;99.90
5956;DHT22;3004;48.080;11.600;2023-05-14T00:42:58;9.70;99.90
5956;DHT22;3004;48.080;11.600;2023-05-14T00:45:27;9.70;99.90
5956;DHT22;3004;48.080;11.600;2023-05-14T00:48:01;9.70;99.90
5956;DHT22;3004;48.080;11.600;2023-05-14T00:50:53;9.70;99.90
5956;DHT22;3004;48.080;11.600;2023-05-14T00:53:26;9.70;99.90
5956;DHT22;3004;48.080;11.600;2023-05-14T00:55:56;9.70;99.90
5956;DHT22;3004;48.080;11.600;2023-05-14T00:58:29;9.70;99.90
5956;DHT22;3004;48.080;11.600;2023-05-14T01:01:12;9.70;99.90
5956;DHT22;3004;48.080;11.600;2023-05-14T01:03:42;9.70;99.90
5956;DHT22;3004;48.080;11.600;2023-05-14T01:06:36;9.70;99.90
5956;DHT22;3004;48.080;11.600;2023-05-14T01:09:20;9.70;99.90
5956;DHT22;3004;48.080;11.600;2023-05-14T01:11:58;9.70;99.90
5956;DHT22;3004;48.080;11.600;2023-05-14T01:14:47;9.70;99.90
5956;DHT22;3004;48.080;11.600;2023-05-14T01:17:21;9.70;99.90
5956;DHT22;3004;48.080;11.600;2023-05-14T01:19:54;9.70;99.90
5956;DHT22;3004;48.080;11.600;2023-05-14T01:22:36;9.70;99.90
5956;DHT22;3004;48.080;11.600;2023-05-14T01:25:22;9.70;99.90
5956;DHT22;3004;48.080;11.600;2023-05-14T01:28:11;9.70;99.90
5956;DHT22;3004;48.080;11.600;2023-05-14T01:30:47;9.70;99.90
5956;DHT22;3004;48.080;11.600;2023-05-14T01:33:22;9.60;99.90
5956;DHT22;3004;48.080;11.600;2023-05-14T01:35:52;9.60;99.90
5956;DHT22;3004;48.080;11.600;2023-05-14T01:38:24;9.60;99.90
5956;DHT22;3004;48.080;11.600;2023-05-14T01:41:02;9.60;99.90
5956;DHT22;3004;48.080;11.600;2023-05-14T01:43:35;9.50;99.90
5956;DHT22;3004;48.080;11.600;2023-05-14T01:46:11;9.50;99.90
5956;DHT22;3004;48.080;11.600;2023-05-14T01:49:05;9.50;99.90
5956;DHT22;3004;48.080;11.600;2023-05-14T01:51:59;9.40;99.90
5956;DHT22;3004;48.080;11.600;2023-05-14T01:55:08;9.40;99.90
5956;DHT22;3004;48.080;11.600;2023-05-14T01:58:03;9.40;99.90
5956;DHT22;3004;48.080;11.600;2023-05-14T02:04:05;9.30;99.90
5956;DHT22;3004;48.080;11.600;2023-05-14T02:09:31;9.30;99.90
5956;DHT22;3004;48.080;11.600;2023-05-14T02:12:29;9.30;99.90
5956;DHT22;3004;48.080;11.600;2023-05-14T02:15:01;9.30;99.90
5956;DHT22;3004;48.080;11.600;2023-05-14T02:17:30;9.30;99.90
5956;DHT22;3004;48.080;11.600;2023-05-14T02:20:24;9.20;99.90
5956;DHT22;3004;48.080;11.600;2023-05-14T02:22:51;9.20;99.90
5956;DHT22;3004;48.080;11.600;2023-05-14T02:25:18;9.20;99.90
5956;DHT22;3004;48.080;11.600;2023-05-14T02:27:46;9.20;99.90
5956;DHT22;3004;48.080;11.600;2023-05-14T02:30:15;9.20;99.90
5956;DHT22;3004;48.080;11.600;2023-05-14T02:32:44;9.10;99.90
5956;DHT22;3004;48.080;11.600;2023-05-14T02:35:14;9.10;99.90
5956;DHT22;3004;48.080;11.600;2023-05-14T02:37:43;9.10;99.90
5956;DHT22;3004;48.080;11.600;2023-05-14T02:40:10;9.10;99.90
5956;DHT22;3004;48.080;11.600;2023-05-14T02:42:38;9.10;99.90
5956;DHT22;3004;48.080;11.600;2023-05-14T02:45:08;9.00;99.90
5956;DHT22;3004;48.080;11.600;2023-05-14T02:47:35;9.00;99.90
5956;DHT22;3004;48.080;11.600;2023-05-14T02:50:03;9.00;99.90
5956;DHT22;3004;48.080;11.600;2023-05-14T02:52:52;8.90;99.90
5956;DHT22;3004;48.080;11.600;2023-05-14T02:55:22;8.90;99.90
5956;DHT22;3004;48.080;11.600;2023-05-14T02:57:52;8.90;99.90
5956;DHT22;3004;48.080;11.600;2023-05-14T03:00:23;8.90;99.90
5956;DHT22;3004;48.080;11.600;2023-05-14T03:02:50;8.90;99.90
5956;DHT22;3004;48.080;11.600;2023-05-14T03:05:17;8.90;99.90
5956;DHT22;3004;48.080;11.600;2023-05-14T03:07:44;8.90;99.90
5956;DHT22;3004;48.080;11.600;2023-05-14T03:10:18;8.90;99.90
5956;DHT22;3004;48.080;11.600;2023-05-14T03:12:45;8.90;99.90
5956;DHT22;3004;48.080;11.600;2023-05-14T03:15:23;8.90;99.90
5956;DHT22;3004;48.080;11.600;2023-05-14T03:17:50;8.90;99.90
5956;DHT22;3004;48.080;11.600;2023-05-14T03:20:20;8.90;99.90
5956;DHT22;3004;48.080;11.600;2023-05-14T03:22:50;8.90;99.90
5956;DHT22;3004;48.080;11.600;2023-05-14T03:25:18;8.80;99.90
5956;DHT22;3004;48.080;11.600;2023-05-14T03:27:46;8.80;99.90
5956;DHT22;3004;48.080;11.600;2023-05-14T03:30:14;8.80;99.90
5956;DHT22;3004;48.080;11.600;2023-05-14T03:32:44;8.80;99.90
5956;DHT22;3004;48.080;11.600;2023-05-14T03:35:11;8.80;99.90
5956;DHT22;3004;48.080;11.600;2023-05-14T03:37:39;8.80;99.90
5956;DHT22;3004;48.080;11.600;2023-05-14T03:40:09;8.80;99.90
5956;DHT22;3004;48.080;11.600;2023-05-14T03:42:38;8.70;99.90
5956;DHT22;3004;48.080;11.600;2023-05-14T03:45:06;8.70;99.90
5956;DHT22;3004;48.080;11.600;2023-05-14T03:47:36;8.70;99.90
5956;DHT22;3004;48.080;11.600;2023-05-14T03:50:06;8.70;99.90
5956;DHT22;3004;48.080;11.600;2023-05-14T03:52:35;8.70;99.90
5956;DHT22;3004;48.080;11.600;2023-05-14T03:55:02;8.70;99.90
5956;DHT22;3004;48.080;11.600;2023-05-14T03:57:29;8.80;99.90
5956;DHT22;3004;48.080;11.600;2023-05-14T03:59:59;8.80;99.90
5956;DHT22;3004;48.080;11.600;2023-05-14T04:02:26;8.70;99.90
5956;DHT22;3004;48.080;11.600;2023-05-14T04:04:55;8.70;99.90
5956;DHT22;3004;48.080;11.600;2023-05-14T04:07:25;8.70;99.90
5956;DHT22;3004;48.080;11.600;2023-05-14T04:09:58;8.70;99.90
5956;DHT22;3004;48.080;11.600;2023-05-14T04:12:25;8.70;99.90
5956;DHT22;3004;48.080;11.600;2023-05-14T04:14:52;8.70;99.90
5956;DHT22;3004;48.080;11.600;2023-05-14T04:17:19;8.80;99.90
5956;DHT22;3004;48.080;11.600;2023-05-14T04:19:46;8.80;99.90
5956;DHT22;3004;48.080;11.600;2023-05-14T04:22:13;8.80;99.90
5956;DHT22;3004;48.080;11.600;2023-05-14T04:24:54;8.80;99.90
5956;DHT22;3004;48.080;11.600;2023-05-14T04:27:21;8.80;99.90
5956;DHT22;3004;48.080;11.600;2023-05-14T04:29:49;8.80;99.90
5956;DHT22;3004;48.080;11.600;2023-05-14T04:32:19;8.80;99.90
5956;DHT22;3004;48.080;11.600;2023-05-14T04:34:50;8.80;99.90
5956;DHT22;3004;48.080;11.600;2023-05-14T04:37:19;8.80;99.90
5956;DHT22;3004;48.080;11.600;2023-05-14T04:39:47;8.80;99.90
5956;DHT22;3004;48.080;11.600;2023-05-14T04:42:17;8.80;99.90
5956;DHT22;3004;48.080;11.600;2023-05-14T04:44:44;8.70;99.90
5956;DHT22;3004;48.080;11.600;2023-05-14T04:47:11;8.70;99.90
5956;DHT22;3004;48.080;11.600;2023-05-14T04:49:38;8.70;99.90
5956;DHT22;3004;48.080;11.600;2023-05-14T04:52:05;8.70;99.90
5956;DHT22;3004;48.080;11.600;2023-05-14T04:54:32;8.80;99.90
5956;DHT22;3004;48.080;11.600;2023-05-14T04:56:59;8.80;99.90
5956;DHT22;3004;48.080;11.600;2023-05-14T04:59:30;8.80;99.90
5956;DHT22;3004;48.080;11.600;2023-05-14T05:01:58;8.70;99.90
5956;DHT22;3004;48.080;11.600;2023-05-14T05:04:26;8.60;99.90
5956;DHT22;3004;48.080;11.600;2023-05-14T05:06:53;8.60;99.90
5956;DHT22;3004;48.080;11.600;2023-05-14T05:09:20;8.60;99.90
5956;DHT22;3004;48.080;11.600;2023-05-14T05:11:49;8.60;99.90
5956;DHT22;3004;48.080;11.600;2023-05-14T05:14:16;8.60;99.90
5956;DHT22;3004;48.080;11.600;2023-05-14T05:16:46;8.60;99.90
5956;DHT22;3004;48.080;11.600;2023-05-14T05:19:13;8.60;99.90
5956;DHT22;3004;48.080;11.600;2023-05-14T05:21:40;8.60;99.90
5956;DHT22;3004;48.080;11.600;2023-05-14T05:24:08;8.60;99.90
5956;DHT22;3004;48.080;11.600;2023-05-14T05:26:35;8.60;99.90
5956;DHT22;3004;48.080;11.600;2023-05-14T05:29:03;8.60;99.90
5956;DHT22;3004;48.080;11.600;2023-05-14T05:31:30;8.60;99.90
5956;DHT22;3004;48.080;11.600;2023-05-14T05:33:59;8.60;99.90
5956;DHT22;3004;48.080;11.600;2023-05-14T05:36:26;8.70;99.90
5956;DHT22;3004;48.080;11.600;2023-05-14T05:38:54;8.60;99.90
5956;DHT22;3004;48.080;11.600;2023-05-14T05:41:21;8.60;99.90
5956;DHT22;3004;48.080;11.600;2023-05-14T05:43:48;8.60;99.90
5956;DHT22;3004;48.080;11.600;2023-05-14T05:46:17;8.70;99.90
5956;DHT22;3004;48.080;11.600;2023-05-14T05:48:47;8.70;99.90
5956;DHT22;3004;48.080;11.600;2023-05-14T05:51:19;8.60;99.90
5956;DHT22;3004;48.080;11.600;2023-05-14T05:53:46;8.60;99.90
5956;DHT22;3004;48.080;11.600;2023-05-14T05:56:15;8.70;99.90
5956;DHT22;3004;48.080;11.600;2023-05-14T05:58:42;8.70;99.90
5956;DHT22;3004;48.080;11.600;2023-05-14T06:01:09;8.70;99.90
5956;DHT22;3004;48.080;11.600;2023-05-14T06:03:36;8.70;99.90
5956;DHT22;3004;48.080;11.600;2023-05-14T06:06:05;8.70;99.90
5956;DHT22;3004;48.080;11.600;2023-05-14T06:08:34;8.70;99.90
5956;DHT22;3004;48.080;11.600;2023-05-14T06:11:01;8.80;99.90
5956;DHT22;3004;48.080;11.600;2023-05-14T06:13:31;8.70;99.90
5956;DHT22;3004;48.080;11.600;2023-05-14T06:15:58;8.80;99.90
5956;DHT22;3004;48.080;11.600;2023-05-14T06:18:25;8.70;99.90
5956;DHT22;3004;48.080;11.600;2023-05-14T06:20:55;8.70;99.90
5956;DHT22;3004;48.080;11.600;2023-05-14T06:23:26;8.80;99.90
5956;DHT22;3004;48.080;11.600;2023-05-14T06:25:55;8.80;99.90
5956;DHT22;3004;48.080;11.600;2023-05-14T06:28:23;8.80;99.90
5956;DHT22;3004;48.080;11.600;2023-05-14T06:30:51;8.80;99.90
5956;DHT22;3004;48.080;11.600;2023-05-14T06:33:18;8.80;99.90
5956;DHT22;3004;48.080;11.600;2023-05-14T06:35:53;8.80;99.90
5956;DHT22;3004;48.080;11.600;2023-05-14T06:38:21;8.80;99.90
5956;DHT22;3004;48.080;11.600;2023-05-14T06:40:47;8.90;99.90
5956;DHT22;3004;48.080;11.600;2023-05-14T06:43:16;8.90;99.90
5956;DHT22;3004;48.080;11.600;2023-05-14T06:45:43;8.90;99.90
5956;DHT22;3004;48.080;11.600;2023-05-14T06:48:58;8.90;99.90
5956;DHT22;3004;48.080;11.600;2023-05-14T06:51:49;8.90;99.90
5956;DHT22;3004;48.080;11.600;2023-05-14T06:54:21;9.00;99.90
5956;DHT22;3004;48.080;11.600;2023-05-14T06:56:48;9.00;99.90
5956;DHT22;3004;48.080;11.600;2023-05-14T06:59:20;9.00;99.90
5956;DHT22;3004;48.080;11.600;2023-05-14T07:01:47;9.00;99.90
5956;DHT22;3004;48.080;11.600;2023-05-14T07:04:14;9.00;99.90
5956;DHT22;3004;48.080;11.600;2023-05-14T07:06:58;9.00;99.90
5956;DHT22;3004;48.080;11.600;2023-05-14T07:09:45;9.10;99.90
5956;DHT22;3004;48.080;11.600;2023-05-14T07:13:36;9.10;99.90
5956;DHT22;3004;48.080;11.600;2023-05-14T07:18:58;9.20;99.90
5956;DHT22;3004;48.080;11.600;2023-05-14T07:21:33;9.20;99.90
5956;DHT22;3004;48.080;11.600;2023-05-14T07:24:00;9.20;99.90
5956;DHT22;3004;48.080;11.600;2023-05-14T07:26:28;9.30;99.90
5956;DHT22;3004;48.080;11.600;2023-05-14T07:29:10;9.30;99.90
5956;DHT22;3004;48.080;11.600;2023-05-14T07:31:42;9.30;99.90
5956;DHT22;3004;48.080;11.600;2023-05-14T07:34:10;9.30;99.90
5956;DHT22;3004;48.080;11.600;2023-05-14T07:36:42;9.40;99.90
5956;DHT22;3004;48.080;11.600;2023-05-14T07:39:09;9.40;99.90
5956;DHT22;3004;48.080;11.600;2023-05-14T07:41:38;9.50;99.90
5956;DHT22;3004;48.080;11.600;2023-05-14T07:44:06;9.70;99.90
5956;DHT22;3004;48.080;11.600;2023-05-14T07:46:35;9.70;99.90
5956;DHT22;3004;48.080;11.600;2023-05-14T07:49:05;9.70;99.90
5956;DHT22;3004;48.080;11.600;2023-05-14T07:51:35;9.80;99.90
5956;DHT22;3004;48.080;11.600;2023-05-14T07:54:04;9.80;99.90
5956;DHT22;3004;48.080;11.600;2023-05-14T07:56:31;9.80;99.90
5956;DHT22;3004;48.080;11.600;2023-05-14T07:58:58;9.90;99.90
5956;DHT22;3004;48.080;11.600;2023-05-14T08:01:25;9.90;99.90
5956;DHT22;3004;48.080;11.600;2023-05-14T08:03:57;10.00;99.90
5956;DHT22;3004;48.080;11.600;2023-05-14T08:06:24;10.00;99.90
5956;DHT22;3004;48.080;11.600;2023-05-14T08:08:57;10.00;99.90
5956;DHT22;3004;48.080;11.600;2023-05-14T08:11:27;9.90;99.90
5956;DHT22;3004;48.080;11.600;2023-05-14T08:13:56;9.90;99.90
5956;DHT22;3004;48.080;11.600;2023-05-14T08:16:23;9.80;99.90
5956;DHT22;3004;48.080;11.600;2023-05-14T08:18:50;9.90;99.90
5956;DHT22;3004;48.080;11.600;2023-05-14T08:21:22;9.90;99.90
5956;DHT22;3004;48.080;11.600;2023-05-14T08:23:49;9.90;99.90
5956;DHT22;3004;48.080;11.600;2023-05-14T08:26:17;9.90;99.90
5956;DHT22;3004;48.080;11.600;2023-05-14T08:28:49;9.90;99.90
5956;DHT22;3004;48.080;11.600;2023-05-14T08:31:18;9.90;99.90
5956;DHT22;3004;48.080;11.600;2023-05-14T08:33:45;9.80;99.90
5956;DHT22;3004;48.080;11.600;2023-05-14T08:36:15;9.80;99.90
5956;DHT22;3004;48.080;11.600;2023-05-14T08:38:42;9.80;99.90
5956;DHT22;3004;48.080;11.600;2023-05-14T08:41:10;9.80;99.90
5956;DHT22;3004;48.080;11.600;2023-05-14T08:43:49;9.80;99.90
5956;DHT22;3004;48.080;11.600;2023-05-14T08:46:22;9.80;99.90
5956;DHT22;3004;48.080;11.600;2023-05-14T08:48:55;9.80;99.90
5956;DHT22;3004;48.080;11.600;2023-05-14T08:51:24;9.90;99.90
5956;DHT22;3004;48.080;11.600;2023-05-14T08:53:56;9.90;99.90
5956;DHT22;3004;48.080;11.600;2023-05-14T08:56:26;10.00;99.90
5956;DHT22;3004;48.080;11.600;2023-05-14T08:58:56;10.00;99.90
5956;DHT22;3004;48.080;11.600;2023-05-14T09:01:23;10.00;99.90
5956;DHT22;3004;48.080;11.600;2023-05-14T09:03:58;10.00;99.90
5956;DHT22;3004;48.080;11.600;2023-05-14T09:06:32;10.10;99.90
5956;DHT22;3004;48.080;11.600;2023-05-14T09:08:59;10.10;99.90
5956;DHT22;3004;48.080;11.600;2023-05-14T09:11:29;10.10;99.90
5956;DHT22;3004;48.080;11.600;2023-05-14T09:14:05;10.10;99.90
5956;DHT22;3004;48.080;11.600;2023-05-14T09:16:35;10.20;99.90
5956;DHT22;3004;48.080;11.600;2023-05-14T09:19:10;10.20;99.90
5956;DHT22;3004;48.080;11.600;2023-05-14T09:21:55;10.30;99.90
5956;DHT22;3004;48.080;11.600;2023-05-14T09:25:12;10.30;99.90
5956;DHT22;3004;48.080;11.600;2023-05-14T09:28:09;10.40;99.90
5956;DHT22;3004;48.080;11.600;2023-05-14T09:31:15;10.40;99.90
5956;DHT22;3004;48.080;11.600;2023-05-14T09:38:50;10.40;99.90
5956;DHT22;3004;48.080;11.600;2023-05-14T09:40:53;10.60;99.90
5956;DHT22;3004;48.080;11.600;2023-05-14T09:43:22;10.60;99.90
5956;DHT22;3004;48.080;11.600;2023-05-14T09:45:59;10.50;99.90
5956;DHT22;3004;48.080;11.600;2023-05-14T09:52:13;10.50;99.90
5956;DHT22;3004;48.080;11.600;2023-05-14T09:54:49;10.30;99.90
5956;DHT22;3004;48.080;11.600;2023-05-14T09:57:26;10.30;99.90
5956;DHT22;3004;48.080;11.600;2023-05-14T09:59:55;10.30;99.90
5956;DHT22;3004;48.080;11.600;2023-05-14T10:05:37;10.10;99.90
5956;DHT22;3004;48.080;11.600;2023-05-14T10:08:12;10.10;99.90
5956;DHT22;3004;48.080;11.600;2023-05-14T10:10:42;10.10;99.90
5956;DHT22;3004;48.080;11.600;2023-05-14T10:13:22;10.20;99.90
5956;DHT22;3004;48.080;11.600;2023-05-14T10:16:03;10.20;99.90
5956;DHT22;3004;48.080;11.600;2023-05-14T10:18:42;10.20;99.90
5956;DHT22;3004;48.080;11.600;2023-05-14T10:21:18;10.20;99.90
5956;DHT22;3004;48.080;11.600;2023-05-14T10:24:15;10.30;99.90
5956;DHT22;3004;48.080;11.600;2023-05-14T10:27:21;10.30;99.90
5956;DHT22;3004;48.080;11.600;2023-05-14T10:29:56;10.30;99.90
5956;DHT22;3004;48.080;11.600;2023-05-14T10:32:24;10.30;99.90
5956;DHT22;3004;48.080;11.600;2023-05-14T10:34:52;10.30;99.90
5956;DHT22;3004;48.080;11.600;2023-05-14T10:37:23;10.30;99.90
5956;DHT22;3004;48.080;11.600;2023-05-14T10:40:00;10.30;99.90
5956;DHT22;3004;48.080;11.600;2023-05-14T10:42:34;10.30;99.90
5956;DHT22;3004;48.080;11.600;2023-05-14T10:45:06;10.40;99.90
5956;DHT22;3004;48.080;11.600;2023-05-14T10:47:35;10.30;99.90
5956;DHT22;3004;48.080;11.600;2023-05-14T10:50:03;10.40;99.90
5956;DHT22;3004;48.080;11.600;2023-05-14T10:52:32;10.40;99.90
5956;DHT22;3004;48.080;11.600;2023-05-14T10:55:02;10.40;99.90
5956;DHT22;3004;48.080;11.600;2023-05-14T10:57:33;10.50;99.90
5956;DHT22;3004;48.080;11.600;2023-05-14T11:00:02;10.40;99.90
5956;DHT22;3004;48.080;11.600;2023-05-14T11:02:37;10.40;99.90
5956;DHT22;3004;48.080;11.600;2023-05-14T11:05:06;10.40;99.90
5956;DHT22;3004;48.080;11.600;2023-05-14T11:07:39;10.40;99.90
5956;DHT22;3004;48.080;11.600;2023-05-14T11:10:08;10.40;99.90
5956;DHT22;3004;48.080;11.600;2023-05-14T11:12:36;10.40;99.90
5956;DHT22;3004;48.080;11.600;2023-05-14T11:15:06;10.40;99.90
5956;DHT22;3004;48.080;11.600;2023-05-14T11:17:39;10.50;99.90
5956;DHT22;3004;48.080;11.600;2023-05-14T11:20:07;10.50;99.90
5956;DHT22;3004;48.080;11.600;2023-05-14T11:22:37;10.70;99.90
5956;DHT22;3004;48.080;11.600;2023-05-14T11:25:06;10.80;99.90
5956;DHT22;3004;48.080;11.600;2023-05-14T11:27:43;11.00;99.90
5956;DHT22;3004;48.080;11.600;2023-05-14T11:30:14;11.10;99.90
5956;DHT22;3004;48.080;11.600;2023-05-14T11:32:43;11.20;99.90
5956;DHT22;3004;48.080;11.600;2023-05-14T11:35:10;11.30;99.90
5956;DHT22;3004;48.080;11.600;2023-05-14T11:37:39;11.60;99.90
5956;DHT22;3004;48.080;11.600;2023-05-14T11:40:13;11.80;99.90
5956;DHT22;3004;48.080;11.600;2023-05-14T11:42:41;12.00;99.90
5956;DHT22;3004;48.080;11.600;2023-05-14T11:45:10;12.30;99.90
5956;DHT22;3004;48.080;11.600;2023-05-14T11:47:38;12.50;99.90
5956;DHT22;3004;48.080;11.600;2023-05-14T11:50:07;12.50;99.90
5956;DHT22;3004;48.080;11.600;2023-05-14T11:52:36;12.30;99.90
5956;DHT22;3004;48.080;11.600;2023-05-14T11:55:09;12.10;99.90
5956;DHT22;3004;48.080;11.600;2023-05-14T11:57:37;12.00;99.90
5956;DHT22;3004;48.080;11.600;2023-05-14T12:00:08;12.00;99.90
5956;DHT22;3004;48.080;11.600;2023-05-14T12:02:39;11.90;99.90
5956;DHT22;3004;48.080;11.600;2023-05-14T12:05:11;12.30;99.90
5956;DHT22;3004;48.080;11.600;2023-05-14T12:07:44;12.10;99.90
5956;DHT22;3004;48.080;11.600;2023-05-14T12:10:14;12.20;99.90
5956;DHT22;3004;48.080;11.600;2023-05-14T12:12:44;12.10;99.90
5956;DHT22;3004;48.080;11.600;2023-05-14T12:15:12;11.90;99.90
5956;DHT22;3004;48.080;11.600;2023-05-14T12:17:41;12.00;99.90
5956;DHT22;3004;48.080;11.600;2023-05-14T12:20:09;12.20;99.90
5956;DHT22;3004;48.080;11.600;2023-05-14T12:22:37;12.30;99.90
5956;DHT22;3004;48.080;11.600;2023-05-14T12:25:21;12.50;99.90
5956;DHT22;3004;48.080;11.600;2023-05-14T12:27:55;12.60;99.90
5956;DHT22;3004;48.080;11.600;2023-05-14T12:30:25;12.30;99.90
5956;DHT22;3004;48.080;11.600;2023-05-14T12:32:52;12.60;99.90
5956;DHT22;3004;48.080;11.600;2023-05-14T12:35:25;12.70;99.90
5956;DHT22;3004;48.080;11.600;2023-05-14T12:37:52;12.90;99.90
5956;DHT22;3004;48.080;11.600;2023-05-14T12:40:24;13.40;99.90
5956;DHT22;3004;48.080;11.600;2023-05-14T12:42:51;12.90;99.90
5956;DHT22;3004;48.080;11.600;2023-05-14T12:45:23;12.40;99.90
5956;DHT22;3004;48.080;11.600;2023-05-14T12:47:52;12.40;99.90
5956;DHT22;3004;48.080;11.600;2023-05-14T12:50:19;13.00;99.90
5956;DHT22;3004;48.080;11.600;2023-05-14T12:52:47;12.90;99.90
5956;DHT22;3004;48.080;11.600;2023-05-14T12:55:14;12.60;99.90
5956;DHT22;3004;48.080;11.600;2023-05-14T12:57:44;12.60;99.90
5956;DHT22;3004;48.080;11.600;2023-05-14T13:00:11;12.60;99.90
5956;DHT22;3004;48.080;11.600;2023-05-14T13:02:39;12.80;99.90
5956;DHT22;3004;48.080;11.600;2023-05-14T13:05:07;12.80;99.90
5956;DHT22;3004;48.080;11.600;2023-05-14T13:07:35;13.10;99.90
5956;DHT22;3004;48.080;11.600;2023-05-14T13:10:04;13.50;99.90
5956;DHT22;3004;48.080;11.600;2023-05-14T13:12:31;13.70;99.90
5956;DHT22;3004;48.080;11.600;2023-05-14T13:15:00;14.00;99.90
5956;DHT22;3004;48.080;11.600;2023-05-14T13:17:27;13.60;99.90
5956;DHT22;3004;48.080;11.600;2023-05-14T13:19:54;13.50;99.90
5956;DHT22;3004;48.080;11.600;2023-05-14T13:22:22;13.20;99.90
5956;DHT22;3004;48.080;11.600;2023-05-14T13:24:49;13.20;99.90
5956;DHT22;3004;48.080;11.600;2023-05-14T13:27:16;13.50;99.90
5956;DHT22;3004;48.080;11.600;2023-05-14T13:29:44;14.20;99.90
5956;DHT22;3004;48.080;11.600;2023-05-14T13:32:15;14.20;99.90
5956;DHT22;3004;48.080;11.600;2023-05-14T13:34:42;14.00;99.90
5956;DHT22;3004;48.080;11.600;2023-05-14T13:37:09;13.80;99.90
5956;DHT22;3004;48.080;11.600;2023-05-14T13:39:38;13.50;99.90
5956;DHT22;3004;48.080;11.600;2023-05-14T13:42:05;13.50;99.90
5956;DHT22;3004;48.080;11.600;2023-05-14T13:44:34;13.50;99.90
5956;DHT22;3004;48.080;11.600;2023-05-14T13:47:03;13.80;99.90
5956;DHT22;3004;48.080;11.600;2023-05-14T13:49:36;13.80;99.90
5956;DHT22;3004;48.080;11.600;2023-05-14T13:52:05;13.70;99.90
5956;DHT22;3004;48.080;11.600;2023-05-14T13:54:34;13.80;99.90
5956;DHT22;3004;48.080;11.600;2023-05-14T13:57:06;14.10;99.90
5956;DHT22;3004;48.080;11.600;2023-05-14T13:59:36;14.20;99.90
5956;DHT22;3004;48.080;11.600;2023-05-14T14:02:08;14.10;99.90
5956;DHT22;3004;48.080;11.600;2023-05-14T14:04:36;14.20;99.90
5956;DHT22;3004;48.080;11.600;2023-05-14T14:07:04;13.90;99.90
5956;DHT22;3004;48.080;11.600;2023-05-14T14:09:31;14.20;99.90
5956;DHT22;3004;48.080;11.600;2023-05-14T14:12:00;14.40;99.90
5956;DHT22;3004;48.080;11.600;2023-05-14T14:14:27;14.30;99.90
5956;DHT22;3004;48.080;11.600;2023-05-14T14:16:54;14.50;99.90
5956;DHT22;3004;48.080;11.600;2023-05-14T14:19:24;14.60;99.90
5956;DHT22;3004;48.080;11.600;2023-05-14T14:21:56;14.60;99.90
5956;DHT22;3004;48.080;11.600;2023-05-14T14:24:26;14.30;99.90
5956;DHT22;3004;48.080;11.600;2023-05-14T14:26:55;14.20;99.90
5956;DHT22;3004;48.080;11.600;2023-05-14T14:29:21;14.20;99.90
5956;DHT22;3004;48.080;11.600;2023-05-14T14:31:49;14.10;99.90
5956;DHT22;3004;48.080;11.600;2023-05-14T14:34:18;14.20;99.90
5956;DHT22;3004;48.080;11.600;2023-05-14T14:36:45;14.30;99.90
5956;DHT22;3004;48.080;11.600;2023-05-14T14:39:15;14.20;99.90
5956;DHT22;3004;48.080;11.600;2023-05-14T14:41:45;14.30;99.90
5956;DHT22;3004;48.080;11.600;2023-05-14T14:44:12;14.60;99.90
5956;DHT22;3004;48.080;11.600;2023-05-14T14:46:40;14.80;99.90
5956;DHT22;3004;48.080;11.600;2023-05-14T14:49:08;15.10;99.90
5956;DHT22;3004;48.080;11.600;2023-05-14T14:51:37;14.80;99.90
5956;DHT22;3004;48.080;11.600;2023-05-14T14:54:04;14.70;99.90
5956;DHT22;3004;48.080;11.600;2023-05-14T14:56:32;14.60;99.90
5956;DHT22;3004;48.080;11.600;2023-05-14T14:59:06;14.70;99.90
5956;DHT22;3004;48.080;11.600;2023-05-14T15:01:34;14.80;99.90
5956;DHT22;3004;48.080;11.600;2023-05-14T15:04:01;14.60;99.90
5956;DHT22;3004;48.080;11.600;2023-05-14T15:06:28;14.60;99.90
5956;DHT22;3004;48.080;11.600;2023-05-14T15:08:59;14.70;99.90
5956;DHT22;3004;48.080;11.600;2023-05-14T15:11:26;14.90;99.90
5956;DHT22;3004;48.080;11.600;2023-05-14T15:13:59;15.10;99.90
5956;DHT22;3004;48.080;11.600;2023-05-14T15:16:31;15.30;99.90
5956;DHT22;3004;48.080;11.600;2023-05-14T15:18:59;15.00;99.90
5956;DHT22;3004;48.080;11.600;2023-05-14T15:21:26;15.10;99.90
5956;DHT22;3004;48.080;11.600;2023-05-14T15:23:53;15.20;99.90
5956;DHT22;3004;48.080;11.600;2023-05-14T15:26:20;15.30;99.90
5956;DHT22;3004;48.080;11.600;2023-05-14T15:28:47;15.50;99.90
5956;DHT22;3004;48.080;11.600;2023-05-14T15:31:16;15.30;99.90
5956;DHT22;3004;48.080;11.600;2023-05-14T15:33:44;15.00;99.90
5956;DHT22;3004;48.080;11.600;2023-05-14T15:36:23;14.80;99.90
5956;DHT22;3004;48.080;11.600;2023-05-14T15:38:58;14.80;99.90
5956;DHT22;3004;48.080;11.600;2023-05-14T15:41:25;14.80;99.90
5956;DHT22;3004;48.080;11.600;2023-05-14T15:43:56;15.00;99.90
5956;DHT22;3004;48.080;11.600;2023-05-14T15:46:24;14.90;99.90
5956;DHT22;3004;48.080;11.600;2023-05-14T15:48:51;14.90;99.90
5956;DHT22;3004;48.080;11.600;2023-05-14T15:51:21;14.90;99.90
5956;DHT22;3004;48.080;11.600;2023-05-14T15:53:53;15.00;99.90
5956;DHT22;3004;48.080;11.600;2023-05-14T15:56:27;15.20;99.90
5956;DHT22;3004;48.080;11.600;2023-05-14T15:58:59;15.10;99.90
5956;DHT22;3004;48.080;11.600;2023-05-14T16:01:40;14.30;99.90
5956;DHT22;3004;48.080;11.600;2023-05-14T16:04:10;14.00;99.90
5956;DHT22;3004;48.080;11.600;2023-05-14T16:06:40;13.80;99.90
5956;DHT22;3004;48.080;11.600;2023-05-14T16:09:15;13.50;99.90
5956;DHT22;3004;48.080;11.600;2023-05-14T16:11:42;13.30;99.90
5956;DHT22;3004;48.080;11.600;2023-05-14T16:14:11;13.20;99.90
5956;DHT22;3004;48.080;11.600;2023-05-14T16:16:43;13.10;99.90
5956;DHT22;3004;48.080;11.600;2023-05-14T16:19:10;12.80;99.90
5956;DHT22;3004;48.080;11.600;2023-05-14T16:21:37;12.70;99.90
5956;DHT22;3004;48.080;11.600;2023-05-14T16:24:05;12.60;99.90
5956;DHT22;3004;48.080;11.600;2023-05-14T16:26:33;12.40;99.90
5956;DHT22;3004;48.080;11.600;2023-05-14T16:29:00;12.20;99.90
5956;DHT22;3004;48.080;11.600;2023-05-14T16:31:27;12.10;99.90
5956;DHT22;3004;48.080;11.600;2023-05-14T16:33:57;11.80;99.90
5956;DHT22;3004;48.080;11.600;2023-05-14T16:36:30;11.80;99.90
5956;DHT22;3004;48.080;11.600;2023-05-14T16:38:59;11.50;99.90
5956;DHT22;3004;48.080;11.600;2023-05-14T16:41:27;11.30;99.90
5956;DHT22;3004;48.080;11.600;2023-05-14T16:43:56;11.30;99.90